createdAt,value
2023-02-11T00:01:16.712Z,59.70
2023-02-11T00:03:43.802Z,67.70
2023-02-11T00:06:11.980Z,58.20
2023-02-11T00:08:39.776Z,47.00
2023-02-11T00:11:07.248Z,45.50
2023-02-11T00:13:34.529Z,48.20
2023-02-11T00:16:07.378Z,43.20
2023-02-11T00:18:34.424Z,50.60
2023-02-11T00:21:10.212Z,39.60
2023-02-11T00:23:38.048Z,35.00
2023-02-11T00:26:12.255Z,36.70
2023-02-11T00:28:39.193Z,54.60
2023-02-11T00:31:06.322Z,40.00
2023-02-11T00:33:33.278Z,32.90
2023-02-11T00:36:08.681Z,41.80
2023-02-11T00:38:36.179Z,36.70
2023-02-11T00:41:03.026Z,30.50
2023-02-11T00:43:29.956Z,38.80
2023-02-11T00:45:57.260Z,38.90
2023-02-11T00:48:24.527Z,49.40
2023-02-11T00:50:51.645Z,46.10
2023-02-11T00:53:18.999Z,47.60
2023-02-11T00:55:46.013Z,55.00
2023-02-11T00:58:13.004Z,40.10
2023-02-11T01:00:40.502Z,48.00
2023-02-11T01:03:07.454Z,22.80
2023-02-11T01:05:35.847Z,33.50
2023-02-11T01:08:03.971Z,35.50
2023-02-11T01:10:31.407Z,28.80
2023-02-11T01:12:58.449Z,39.90
2023-02-11T01:15:25.891Z,27.10
2023-02-11T01:17:53.013Z,22.70
2023-02-11T01:20:24.252Z,38.90
2023-02-11T01:22:51.097Z,41.30
2023-02-11T01:25:18.050Z,46.70
2023-02-11T01:27:45.017Z,44.70
2023-02-11T01:30:14.381Z,44.20
2023-02-11T01:32:41.819Z,39.20
2023-02-11T01:35:09.255Z,55.80
2023-02-11T01:37:36.691Z,58.50
2023-02-11T01:40:07.491Z,59.80
2023-02-11T01:42:34.533Z,59.50
2023-02-11T01:45:22.239Z,48.50
2023-02-11T01:47:49.089Z,54.60
2023-02-11T01:50:16.608Z,60.30
2023-02-11T01:52:46.625Z,60.50
2023-02-11T01:55:33.410Z,68.90
2023-02-11T01:58:05.165Z,58.60
2023-02-11T02:00:39.537Z,66.20
2023-02-11T02:03:11.722Z,56.00
2023-02-11T02:05:58.431Z,51.20
2023-02-11T02:08:47.009Z,58.20
2023-02-11T02:11:14.099Z,71.90
2023-02-11T02:13:41.039Z,68.60
2023-02-11T02:16:18.139Z,58.50
2023-02-11T02:19:31.493Z,50.30
2023-02-11T02:22:07.965Z,39.40
2023-02-11T02:25:01.296Z,49.80
2023-02-11T02:27:48.531Z,65.10
2023-02-11T02:30:33.761Z,50.90
2023-02-11T02:33:34.326Z,53.30
2023-02-11T02:36:48.239Z,48.90
2023-02-11T02:39:21.804Z,30.40
2023-02-11T02:41:51.244Z,27.60
2023-02-11T02:44:20.070Z,34.00
2023-02-11T02:46:47.407Z,27.10
2023-02-11T02:49:16.686Z,39.70
2023-02-11T02:52:16.289Z,33.80
2023-02-11T02:55:12.819Z,40.60
2023-02-11T02:58:35.778Z,36.20
2023-02-11T03:01:14.661Z,49.40
2023-02-11T03:03:51.332Z,34.80
2023-02-11T03:06:47.013Z,33.90
2023-02-11T03:09:25.809Z,50.50
2023-02-11T03:11:53.086Z,25.00
2023-02-11T03:14:22.606Z,17.30
2023-02-11T03:16:51.250Z,48.30
2023-02-11T03:19:23.173Z,63.30
2023-02-11T03:21:52.693Z,41.20
2023-02-11T03:24:41.325Z,60.40
2023-02-11T03:27:44.609Z,62.50
2023-02-11T03:30:26.962Z,52.10
2023-02-11T03:32:59.571Z,58.90
2023-02-11T03:35:36.935Z,56.10
2023-02-11T03:38:18.047Z,54.20
2023-02-11T03:43:26.369Z,49.10
2023-02-11T03:45:55.619Z,56.00
2023-02-11T03:48:33.890Z,24.30
2023-02-11T03:51:05.418Z,41.70
2023-02-11T03:53:32.536Z,37.10
2023-02-11T03:56:05.740Z,36.00
2023-02-11T03:58:32.688Z,32.50
2023-02-11T04:00:59.918Z,37.50
2023-02-11T04:03:26.821Z,29.40
2023-02-11T04:05:54.527Z,44.20
2023-02-11T04:08:21.807Z,31.40
2023-02-11T04:10:48.901Z,37.70
2023-02-11T04:13:15.902Z,42.70
2023-02-11T04:15:42.928Z,33.70
2023-02-11T04:18:10.213Z,32.30
2023-02-11T04:20:37.086Z,23.60
2023-02-11T04:23:04.292Z,20.80
2023-02-11T04:25:31.406Z,25.80
2023-02-11T04:27:58.705Z,113.80
2023-02-11T04:30:25.664Z,99.80
2023-02-11T04:32:54.551Z,499.20
2023-02-11T04:35:22.052Z,127.30
2023-02-11T04:37:48.851Z,468.00
2023-02-11T04:40:15.981Z,340.00
2023-02-11T04:42:42.939Z,324.60
2023-02-11T04:45:10.500Z,90.60
2023-02-11T04:47:38.288Z,49.00
2023-02-11T04:50:06.031Z,68.60
2023-02-11T04:52:33.329Z,78.50
2023-02-11T04:55:00.371Z,58.30
2023-02-11T04:57:27.493Z,65.40
2023-02-11T04:59:54.309Z,38.50
2023-02-11T05:02:21.728Z,55.40
2023-02-11T05:04:48.768Z,49.70
2023-02-11T05:07:15.895Z,43.90
2023-02-11T05:09:43.171Z,44.80
2023-02-11T05:12:10.212Z,33.10
2023-02-11T05:14:37.259Z,28.30
2023-02-11T05:17:04.611Z,67.90
2023-02-11T05:19:32.306Z,41.90
2023-02-11T05:22:03.059Z,30.70
2023-02-11T05:24:32.780Z,26.80
2023-02-11T05:27:00.402Z,38.50
2023-02-11T05:29:27.892Z,24.20
2023-02-11T05:31:55.181Z,28.10
2023-02-11T05:34:22.158Z,26.70
2023-02-11T05:36:49.251Z,41.40
2023-02-11T05:39:16.246Z,26.60
2023-02-11T05:41:43.248Z,30.30
2023-02-11T05:44:10.687Z,30.30
2023-02-11T05:46:37.720Z,30.40
2023-02-11T05:49:05.142Z,33.30
2023-02-11T05:51:32.448Z,33.50
2023-02-11T05:53:59.489Z,46.30
2023-02-11T05:56:26.481Z,37.60
2023-02-11T05:58:53.569Z,38.40
2023-02-11T06:01:20.787Z,31.70
2023-02-11T06:03:50.496Z,33.20
2023-02-11T06:06:18.049Z,28.30
2023-02-11T06:08:44.982Z,50.40
2023-02-11T06:11:11.724Z,43.10
2023-02-11T06:13:38.941Z,27.90
2023-02-11T06:16:06.419Z,40.10
2023-02-11T06:18:34.128Z,36.00
2023-02-11T06:21:01.035Z,25.80
2023-02-11T06:23:30.229Z,27.60
2023-02-11T06:26:02.705Z,23.90
2023-02-11T06:28:31.872Z,20.30
2023-02-11T06:31:00.280Z,30.60
2023-02-11T06:33:27.113Z,31.00
2023-02-11T06:35:53.848Z,34.30
2023-02-11T06:38:23.779Z,35.80
2023-02-11T06:40:51.118Z,37.00
2023-02-11T06:43:18.157Z,27.30
2023-02-11T06:45:45.249Z,33.80
2023-02-11T06:48:12.375Z,42.50
2023-02-11T06:50:39.572Z,31.20
2023-02-11T06:53:06.549Z,30.70
2023-02-11T06:55:35.450Z,36.30
2023-02-11T06:58:02.533Z,43.90
2023-02-11T07:00:29.978Z,28.10
2023-02-11T07:02:57.439Z,32.50
2023-02-11T07:05:24.644Z,37.10
2023-02-11T07:07:51.653Z,20.60
2023-02-11T07:10:18.732Z,39.20
2023-02-11T07:12:45.730Z,29.80
2023-02-11T07:15:12.930Z,23.60
2023-02-11T07:17:39.868Z,29.60
2023-02-11T07:20:07.492Z,32.70
2023-02-11T07:22:35.290Z,29.40
2023-02-11T07:25:02.337Z,38.00
2023-02-11T07:27:29.393Z,22.00
2023-02-11T07:29:56.369Z,32.70
2023-02-11T07:32:23.334Z,28.50
2023-02-11T07:34:50.476Z,27.40
2023-02-11T07:37:17.586Z,26.30
2023-02-11T07:39:44.501Z,38.60
2023-02-11T07:42:11.866Z,31.80
2023-02-11T07:44:39.171Z,32.20
2023-02-11T07:47:06.082Z,28.10
2023-02-11T07:49:33.093Z,26.80
2023-02-11T07:52:00.299Z,44.30
2023-02-11T07:54:27.745Z,30.00
2023-02-11T07:56:54.649Z,32.00
2023-02-11T07:59:21.784Z,37.40
2023-02-11T08:01:49.115Z,27.70
2023-02-11T08:04:16.183Z,31.60
2023-02-11T08:06:44.380Z,31.20
2023-02-11T08:09:19.249Z,32.70
2023-02-11T08:11:46.331Z,27.10
2023-02-11T08:14:13.385Z,33.70
2023-02-11T08:16:40.999Z,31.20
2023-02-11T08:19:13.027Z,28.50
2023-02-11T08:21:40.854Z,36.40
2023-02-11T08:24:08.410Z,22.30
2023-02-11T08:26:36.582Z,25.10
2023-02-11T08:29:14.703Z,35.90
2023-02-11T08:31:45.072Z,21.60
2023-02-11T08:34:14.949Z,35.30
2023-02-11T08:36:43.305Z,32.80
2023-02-11T08:39:20.029Z,31.40
2023-02-11T08:41:50.626Z,33.10
2023-02-11T08:44:19.175Z,31.00
2023-02-11T08:46:47.503Z,20.80
2023-02-11T08:49:15.268Z,28.30
2023-02-11T08:51:43.077Z,26.80
2023-02-11T08:54:10.699Z,27.50
2023-02-11T08:56:39.596Z,31.40
2023-02-11T08:59:07.587Z,36.50
2023-02-11T09:01:34.725Z,31.20
2023-02-11T09:04:02.133Z,20.90
2023-02-11T09:06:29.752Z,31.70
2023-02-11T09:08:58.338Z,30.20
2023-02-11T09:11:29.621Z,30.20
2023-02-11T09:13:57.486Z,26.50
2023-02-11T09:16:27.922Z,30.20
2023-02-11T09:18:57.886Z,23.10
2023-02-11T09:21:25.589Z,25.00
2023-02-11T09:23:53.170Z,26.60
2023-02-11T09:26:25.904Z,29.30
2023-02-11T09:28:53.340Z,27.90
2023-02-11T09:31:23.249Z,33.80
2023-02-11T09:33:52.703Z,35.00
2023-02-11T09:36:23.656Z,34.50
2023-02-11T09:38:51.598Z,30.00
2023-02-11T09:41:24.607Z,34.00
2023-02-11T09:43:55.327Z,35.40
2023-02-11T09:46:24.971Z,29.20
2023-02-11T09:48:56.136Z,36.70
2023-02-11T09:54:20.277Z,26.40
2023-02-11T09:56:47.409Z,26.50
2023-02-11T09:59:16.248Z,36.10
2023-02-11T10:01:55.372Z,33.20
2023-02-11T10:04:45.030Z,28.40
2023-02-11T10:07:17.889Z,34.30
2023-02-11T10:10:03.097Z,37.80
2023-02-11T10:12:38.747Z,32.90
2023-02-11T10:15:18.281Z,36.20
2023-02-11T10:17:57.021Z,38.00
2023-02-11T10:21:12.183Z,38.00
2023-02-11T10:23:43.170Z,39.80
2023-02-11T10:26:19.045Z,32.30
2023-02-11T10:28:53.503Z,26.40
2023-02-11T10:31:27.316Z,38.00
2023-02-11T10:34:07.291Z,40.00
2023-02-11T10:36:37.170Z,38.10
2023-02-11T10:39:19.425Z,33.30
2023-02-11T10:41:47.669Z,36.70
2023-02-11T10:44:42.828Z,34.70
2023-02-11T10:47:17.553Z,31.00
2023-02-11T10:49:46.316Z,30.10
2023-02-11T10:52:18.134Z,37.70
2023-02-11T10:54:58.371Z,35.90
2023-02-11T10:57:31.695Z,35.10
2023-02-11T11:00:02.699Z,32.40
2023-02-11T11:02:34.888Z,31.30
2023-02-11T11:05:20.290Z,30.00
2023-02-11T11:08:00.110Z,40.00
2023-02-11T11:10:46.220Z,38.60
2023-02-11T11:13:29.273Z,38.50
2023-02-11T11:16:12.786Z,29.20
2023-02-11T11:18:41.423Z,34.80
2023-02-11T11:21:16.536Z,41.00
2023-02-11T11:23:51.982Z,32.80
2023-02-11T11:26:19.892Z,38.70
2023-02-11T11:28:49.851Z,28.50
2023-02-11T11:31:23.080Z,36.20
2023-02-11T11:33:53.894Z,28.70
2023-02-11T11:36:24.452Z,35.10
2023-02-11T11:38:57.011Z,30.80
2023-02-11T11:41:28.445Z,41.00
2023-02-11T11:44:00.305Z,28.00
2023-02-11T11:46:37.048Z,39.80
2023-02-11T11:49:23.540Z,44.40
2023-02-11T11:52:14.367Z,38.40
2023-02-11T11:54:46.612Z,40.60
2023-02-11T11:57:20.533Z,39.80
2023-02-11T11:59:48.277Z,41.50
2023-02-11T12:02:43.568Z,38.40
2023-02-11T12:05:48.603Z,34.90
2023-02-11T12:08:44.054Z,37.70
2023-02-11T12:11:39.029Z,23.70
2023-02-11T12:14:35.497Z,31.60
2023-02-11T12:17:31.580Z,29.40
2023-02-11T12:20:08.523Z,30.00
2023-02-11T12:22:54.253Z,42.00
2023-02-11T12:25:44.747Z,35.20
2023-02-11T12:28:30.261Z,39.00
2023-02-11T12:31:11.344Z,44.60
2023-02-11T12:33:39.769Z,36.10
2023-02-11T12:36:22.216Z,43.70
2023-02-11T12:39:04.867Z,46.40
2023-02-11T12:42:25.589Z,38.30
2023-02-11T12:45:11.724Z,48.80
2023-02-11T12:48:13.404Z,49.90
2023-02-11T12:51:00.604Z,40.90
2023-02-11T12:53:43.645Z,45.40
2023-02-11T12:56:22.093Z,32.50
2023-02-11T12:58:55.170Z,40.50
2023-02-11T13:01:44.659Z,42.00
2023-02-11T13:04:29.208Z,42.40
2023-02-11T13:07:02.606Z,46.90
2023-02-11T13:09:39.374Z,36.60
2023-02-11T13:12:27.250Z,33.10
2023-02-11T13:14:59.760Z,36.90
2023-02-11T13:17:34.300Z,36.20
2023-02-11T13:20:45.809Z,33.90
2023-02-11T13:25:55.178Z,32.10
2023-02-11T13:29:04.292Z,35.90
2023-02-11T13:31:32.249Z,40.20
2023-02-11T13:33:59.283Z,49.30
2023-02-11T13:36:28.956Z,39.50
2023-02-11T13:39:21.418Z,54.40
2023-02-11T13:41:52.629Z,27.60
2023-02-11T13:44:25.360Z,36.70
2023-02-11T13:47:02.270Z,37.50
2023-02-11T13:49:35.808Z,39.40
2023-02-11T13:52:06.855Z,33.50
2023-02-11T13:57:20.849Z,24.90
2023-02-11T13:59:52.354Z,32.30
2023-02-11T14:02:47.881Z,34.90
2023-02-11T14:05:42.284Z,31.50
2023-02-11T14:08:30.747Z,33.10
2023-02-11T14:11:12.926Z,37.40
2023-02-11T14:13:49.177Z,38.00
2023-02-11T14:16:35.242Z,33.20
2023-02-11T14:19:04.505Z,31.50
2023-02-11T14:21:43.421Z,41.70
2023-02-11T14:24:11.408Z,34.10
2023-02-11T14:26:59.606Z,45.80
2023-02-11T14:29:26.644Z,48.20
2023-02-11T14:31:56.853Z,43.20
2023-02-11T14:34:47.174Z,32.50
2023-02-11T14:37:36.413Z,25.20
2023-02-11T14:40:05.606Z,48.50
2023-02-11T14:42:32.791Z,44.70
2023-02-11T14:45:07.013Z,50.30
2023-02-11T14:48:09.182Z,66.20
2023-02-11T14:50:58.530Z,72.10
2023-02-11T14:53:28.771Z,559.00
2023-02-11T14:55:56.178Z,648.00
2023-02-11T14:58:23.122Z,255.80
2023-02-11T15:01:01.976Z,286.40
2023-02-11T15:03:29.251Z,227.20
2023-02-11T15:06:00.608Z,179.50
2023-02-11T15:08:29.025Z,137.40
2023-02-11T15:10:57.106Z,106.30
2023-02-11T15:13:27.326Z,83.70
2023-02-11T15:16:19.888Z,89.40
2023-02-11T15:18:59.009Z,93.60
2023-02-11T15:21:31.625Z,99.50
2023-02-11T15:24:21.093Z,83.90
2023-02-11T15:26:58.529Z,82.60
2023-02-11T15:29:27.375Z,93.60
2023-02-11T15:32:16.036Z,73.60
2023-02-11T15:34:44.633Z,65.20
2023-02-11T15:37:25.340Z,74.30
2023-02-11T15:39:54.378Z,57.60
2023-02-11T15:42:31.433Z,49.60
2023-02-11T15:45:29.448Z,68.60
2023-02-11T15:48:00.177Z,63.40
2023-02-11T15:50:31.312Z,48.70
2023-02-11T15:53:02.622Z,68.30
2023-02-11T15:55:30.779Z,78.20
2023-02-11T15:58:00.938Z,61.50
2023-02-11T16:00:50.622Z,65.20
2023-02-11T16:03:24.619Z,53.00
2023-02-11T16:05:52.137Z,55.10
2023-02-11T16:08:29.584Z,61.10
2023-02-11T16:11:00.140Z,71.00
2023-02-11T16:13:29.906Z,77.10
2023-02-11T16:16:02.747Z,84.50
2023-02-11T16:18:39.080Z,72.10
2023-02-11T16:21:14.865Z,78.40
2023-02-11T16:23:42.871Z,72.20
2023-02-11T16:26:26.147Z,68.00
2023-02-11T16:28:54.288Z,67.00
2023-02-11T16:31:21.612Z,51.30
2023-02-11T16:33:48.570Z,65.30
2023-02-11T16:36:19.544Z,71.80
2023-02-11T16:38:46.549Z,87.50
2023-02-11T16:41:13.729Z,82.30
2023-02-11T16:43:40.948Z,84.90
2023-02-11T16:46:09.969Z,64.90
2023-02-11T16:48:38.308Z,65.20
2023-02-11T16:51:05.562Z,74.20
2023-02-11T16:53:32.773Z,70.70
2023-02-11T16:55:59.891Z,70.40
2023-02-11T16:58:27.105Z,76.90
2023-02-11T17:00:54.503Z,55.50
2023-02-11T17:03:27.478Z,65.70
2023-02-11T17:05:56.526Z,66.20
2023-02-11T17:08:23.822Z,56.20
2023-02-11T17:10:51.016Z,61.70
2023-02-11T17:13:18.392Z,69.90
2023-02-11T17:15:45.533Z,53.80
2023-02-11T17:18:14.722Z,44.40
2023-02-11T17:20:41.747Z,48.20
2023-02-11T17:23:09.504Z,58.20
2023-02-11T17:25:40.977Z,58.40
2023-02-11T17:28:09.547Z,71.60
2023-02-11T17:30:36.923Z,77.20
2023-02-11T17:33:04.053Z,76.40
2023-02-11T17:35:31.483Z,71.70
2023-02-11T17:37:59.480Z,67.80
2023-02-11T17:40:27.293Z,65.10
2023-02-11T17:42:54.445Z,69.80
2023-02-11T17:45:22.475Z,58.50
2023-02-11T17:47:49.885Z,56.80
2023-02-11T17:50:17.089Z,41.00
2023-02-11T17:52:44.414Z,55.70
2023-02-11T17:55:11.866Z,57.30
2023-02-11T17:57:39.125Z,58.00
2023-02-11T18:00:08.862Z,64.10
2023-02-11T18:02:35.996Z,74.90
2023-02-11T18:05:03.951Z,67.20
2023-02-11T18:07:30.886Z,67.60
2023-02-11T18:09:57.855Z,58.80
2023-02-11T18:12:27.667Z,66.50
2023-02-11T18:14:57.892Z,57.80
2023-02-11T18:17:25.627Z,58.90
2023-02-11T18:19:57.187Z,63.50
2023-02-11T18:22:24.828Z,58.90
2023-02-11T18:24:53.817Z,69.50
2023-02-11T18:27:22.161Z,64.00
2023-02-11T18:29:49.041Z,63.30
2023-02-11T18:32:16.448Z,507.20
2023-02-11T18:34:43.504Z,462.70
2023-02-11T18:37:11.734Z,174.40
2023-02-11T18:39:39.091Z,160.90
2023-02-11T18:42:06.417Z,139.10
2023-02-11T18:44:33.730Z,176.70
2023-02-11T18:47:01.424Z,136.20
2023-02-11T18:49:28.879Z,105.50
2023-02-11T18:51:55.970Z,106.70
2023-02-11T18:54:23.076Z,150.60
2023-02-11T18:56:50.371Z,210.70
2023-02-11T18:59:17.483Z,150.30
2023-02-11T19:01:47.305Z,106.40
2023-02-11T19:04:19.292Z,93.10
2023-02-11T19:06:49.776Z,101.40
2023-02-11T19:09:19.756Z,79.20
2023-02-11T19:11:47.609Z,76.10
2023-02-11T19:14:34.560Z,113.20
2023-02-11T19:17:05.312Z,76.80
2023-02-11T19:19:34.794Z,83.10
2023-02-11T19:22:03.748Z,88.30
2023-02-11T19:24:31.141Z,71.40
2023-02-11T19:27:00.456Z,80.40
2023-02-11T19:29:28.551Z,68.60
2023-02-11T19:31:56.312Z,74.90
2023-02-11T19:34:24.403Z,65.70
2023-02-11T19:36:51.818Z,67.70
2023-02-11T19:39:19.169Z,61.50
2023-02-11T19:41:47.752Z,77.10
2023-02-11T19:44:17.969Z,142.20
2023-02-11T19:46:46.326Z,198.10
2023-02-11T19:49:16.927Z,82.40
2023-02-11T19:51:44.553Z,88.20
2023-02-11T19:54:11.888Z,80.00
2023-02-11T19:56:39.254Z,101.70
2023-02-11T19:59:09.170Z,573.00
2023-02-11T20:01:37.159Z,224.00
2023-02-11T20:04:04.052Z,135.40
2023-02-11T20:06:32.875Z,99.10
2023-02-11T20:09:03.109Z,154.60
2023-02-11T20:11:31.981Z,120.40
2023-02-11T20:13:59.824Z,140.30
2023-02-11T20:16:41.008Z,679.10
2023-02-11T20:19:18.349Z,156.80
2023-02-11T20:21:48.547Z,342.70
2023-02-11T20:24:17.571Z,102.60
2023-02-11T20:26:46.700Z,380.70
2023-02-11T20:29:13.673Z,102.80
2023-02-11T20:31:40.650Z,278.00
2023-02-11T20:34:07.740Z,126.10
2023-02-11T20:36:37.748Z,98.10
2023-02-11T20:39:06.488Z,117.50
2023-02-11T20:41:35.806Z,116.70
2023-02-11T20:44:05.901Z,81.70
2023-02-11T20:46:35.053Z,138.80
2023-02-11T20:49:02.547Z,405.50
2023-02-11T20:51:32.847Z,158.60
2023-02-11T20:54:00.786Z,135.50
2023-02-11T20:56:31.661Z,538.10
2023-02-11T20:59:00.165Z,152.20
2023-02-11T21:01:31.063Z,382.10
2023-02-11T21:06:27.897Z,240.00
2023-02-11T21:08:54.781Z,368.10
2023-02-11T21:11:21.658Z,217.10
2023-02-11T21:13:49.087Z,507.40
2023-02-11T21:16:20.706Z,524.30
2023-02-11T21:18:49.004Z,366.80
2023-02-11T21:21:17.600Z,219.10
2023-02-11T21:23:45.019Z,203.50
2023-02-11T21:26:12.138Z,174.70
2023-02-11T21:28:41.044Z,202.70
2023-02-11T21:31:09.932Z,229.60
2023-02-11T21:33:37.137Z,234.50
2023-02-11T21:36:08.041Z,113.80
2023-02-11T21:38:35.428Z,91.40
2023-02-11T21:41:06.623Z,94.40
2023-02-11T21:43:34.059Z,107.10
2023-02-11T21:46:01.415Z,55.60
2023-02-11T21:48:28.709Z,50.40
2023-02-11T21:50:55.575Z,37.60
2023-02-11T21:53:22.494Z,39.90
2023-02-11T21:55:54.854Z,30.70
2023-02-11T21:58:22.011Z,37.10
2023-02-11T22:00:48.898Z,29.00
2023-02-11T22:03:15.981Z,26.00
2023-02-11T22:05:43.043Z,25.70
2023-02-11T22:08:10.053Z,29.30
2023-02-11T22:10:37.093Z,24.80
2023-02-11T22:13:03.982Z,25.00
2023-02-11T22:15:31.186Z,22.00
2023-02-11T22:17:58.214Z,26.20
2023-02-11T22:20:25.574Z,25.90
2023-02-11T22:22:52.563Z,27.30
2023-02-11T22:25:19.607Z,37.20
2023-02-11T22:27:46.613Z,32.90
2023-02-11T22:30:14.465Z,44.20
2023-02-11T22:32:42.765Z,29.40
2023-02-11T22:35:09.890Z,33.40
2023-02-11T22:37:36.942Z,30.80
2023-02-11T22:40:04.325Z,31.00
2023-02-11T22:42:31.168Z,29.10
2023-02-11T22:44:58.389Z,37.80
2023-02-11T22:47:25.459Z,29.00
2023-02-11T22:49:52.405Z,27.60
2023-02-11T22:52:19.324Z,29.10
2023-02-11T22:54:47.614Z,29.40
2023-02-11T22:57:14.705Z,30.40
2023-02-11T22:59:42.020Z,34.00
2023-02-11T23:02:09.072Z,33.60
2023-02-11T23:04:36.114Z,32.70
2023-02-11T23:07:03.164Z,32.60
2023-02-11T23:09:30.108Z,32.40
2023-02-11T23:11:58.178Z,29.50
2023-02-11T23:14:25.912Z,25.80
2023-02-11T23:16:53.073Z,23.20
2023-02-11T23:19:20.323Z,20.30
2023-02-11T23:21:51.747Z,20.50
2023-02-11T23:24:18.716Z,21.00
2023-02-11T23:26:46.184Z,18.30
2023-02-11T23:29:13.665Z,21.10
2023-02-11T23:31:44.170Z,22.80
2023-02-11T23:34:12.470Z,18.40
2023-02-11T23:36:39.373Z,18.30
2023-02-11T23:39:06.626Z,16.80
2023-02-11T23:41:33.834Z,18.80
2023-02-11T23:44:01.331Z,18.40
2023-02-11T23:46:28.766Z,20.40
2023-02-11T23:48:56.243Z,18.40
2023-02-11T23:51:24.154Z,19.20
2023-02-11T23:53:52.910Z,17.30
2023-02-11T23:56:26.281Z,17.30
2023-02-11T23:58:56.349Z,20.50
